createdAt,value
2018-12-26T00:03:05.164Z,6.4
2018-12-26T00:08:04.718Z,6.4
2018-12-26T00:13:05.026Z,6.3
2018-12-26T00:18:04.647Z,6.3
2018-12-26T00:23:05.185Z,6.2
2018-12-26T00:28:05.144Z,6.2
2018-12-26T00:33:04.674Z,6.1
2018-12-26T00:38:04.858Z,6.1
2018-12-26T00:43:05.409Z,6
2018-12-26T00:48:05.318Z,6
2018-12-26T00:53:04.826Z,6
2018-12-26T00:58:05.016Z,6
2018-12-26T01:03:05.005Z,5.9
2018-12-26T01:08:04.673Z,5.9
2018-12-26T01:13:05.386Z,5.9
2018-12-26T01:18:05.056Z,5.9
2018-12-26T01:23:04.780Z,5.9
2018-12-26T01:28:05.216Z,5.9
2018-12-26T01:33:05.180Z,5.9
2018-12-26T01:38:05.173Z,5.9
2018-12-26T01:43:05.331Z,5.9
2018-12-26T01:48:05.443Z,5.9
2018-12-26T01:53:05.004Z,5.9
2018-12-26T01:58:04.793Z,5.9
2018-12-26T02:03:05.585Z,5.9
2018-12-26T02:08:05.610Z,5.9
2018-12-26T02:18:36.399Z,5.8
2018-12-26T02:28:05.533Z,5.9
2018-12-26T02:33:05.166Z,5.9
2018-12-26T02:38:05.554Z,5.9
2018-12-26T02:43:05.194Z,5.9
2018-12-26T02:48:05.361Z,5.9
2018-12-26T02:53:05.573Z,5.9
2018-12-26T02:58:05.295Z,5.9
2018-12-26T03:03:05.354Z,5.9
2018-12-26T03:08:05.309Z,5.9
2018-12-26T03:13:05.555Z,5.9
2018-12-26T03:18:05.128Z,5.9
2018-12-26T03:23:05.212Z,6
2018-12-26T03:28:05.385Z,6
2018-12-26T03:33:05.012Z,6
2018-12-26T03:38:04.855Z,6
2018-12-26T03:43:04.983Z,6.1
2018-12-26T03:48:05.011Z,6.1
2018-12-26T03:53:04.839Z,6.1
2018-12-26T03:58:04.706Z,6.1
2018-12-26T04:03:05.827Z,6.1
2018-12-26T04:08:05.442Z,6.1
2018-12-26T04:13:05.056Z,6.1
2018-12-26T04:18:05.575Z,6.1
2018-12-26T04:23:05.037Z,6.1
2018-12-26T04:28:05.610Z,6.1
2018-12-26T04:33:05.316Z,6.2
2018-12-26T04:38:05.799Z,6.2
2018-12-26T04:43:05.414Z,6.2
2018-12-26T04:48:05.104Z,6.2
2018-12-26T04:53:05.771Z,6.2
2018-12-26T04:58:05.445Z,6.2
2018-12-26T05:03:04.959Z,6.2
2018-12-26T05:08:05.513Z,6.2
2018-12-26T05:13:04.973Z,6.2
2018-12-26T05:18:05.477Z,6.2
2018-12-26T05:23:05.260Z,6.2
2018-12-26T05:28:05.138Z,6.2
2018-12-26T05:33:05.539Z,6.2
2018-12-26T05:38:05.391Z,6.2
2018-12-26T05:43:05.330Z,6.2
2018-12-26T05:48:05.590Z,6.2
2018-12-26T05:53:05.549Z,6.2
2018-12-26T05:58:05.269Z,6.2
2018-12-26T06:03:04.975Z,6.3
2018-12-26T06:08:05.516Z,6.3
2018-12-26T06:13:05.453Z,6.3
2018-12-26T06:18:05.012Z,6.3
2018-12-26T06:23:05.634Z,6.4
2018-12-26T06:28:05.337Z,6.4
2018-12-26T06:33:05.435Z,6.5
2018-12-26T06:38:05.208Z,6.5
2018-12-26T06:43:05.146Z,6.6
2018-12-26T06:48:05.456Z,6.6
2018-12-26T06:53:05.114Z,6.6
2018-12-26T06:58:05.151Z,6.6
2018-12-26T07:03:06.059Z,6.7
2018-12-26T07:08:05.680Z,6.7
2018-12-26T07:13:05.746Z,6.7
2018-12-26T07:18:05.420Z,6.7
2018-12-26T07:23:05.288Z,6.8
2018-12-26T07:28:09.355Z,6.8
2018-12-26T07:33:05.178Z,6.8
2018-12-26T07:38:05.116Z,6.8
2018-12-26T07:43:05.081Z,6.9
2018-12-26T07:48:05.827Z,6.9
2018-12-26T07:53:05.513Z,6.9
2018-12-26T07:58:04.988Z,6.9
2018-12-26T08:03:05.897Z,6.9
2018-12-26T08:08:05.155Z,6.9
2018-12-26T08:13:05.520Z,7
2018-12-26T08:18:05.500Z,7
2018-12-26T08:23:05.333Z,7
2018-12-26T08:28:05.921Z,7
2018-12-26T08:33:05.305Z,7.1
2018-12-26T08:38:05.195Z,7.1
2018-12-26T08:43:05.250Z,7.1
2018-12-26T08:48:05.292Z,7.1
2018-12-26T08:53:05.309Z,7.1
2018-12-26T08:58:05.028Z,7.1
2018-12-26T09:03:05.625Z,7.1
2018-12-26T09:08:05.585Z,7.1
2018-12-26T09:13:06.042Z,7.1
2018-12-26T09:18:05.474Z,7.1
2018-12-26T09:23:05.873Z,7.2
2018-12-26T09:28:05.427Z,7.2
2018-12-26T09:33:05.172Z,7.2
2018-12-26T09:38:05.540Z,7.2
2018-12-26T09:43:05.197Z,7.2
2018-12-26T09:48:05.846Z,7.2
2018-12-26T09:53:05.650Z,7.2
2018-12-26T09:58:06.024Z,7.2
2018-12-26T10:03:05.361Z,7.3
2018-12-26T10:08:05.574Z,7.3
2018-12-26T10:13:05.478Z,7.3
2018-12-26T10:18:05.582Z,7.3
2018-12-26T10:23:05.730Z,7.4
2018-12-26T10:28:05.803Z,7.4
2018-12-26T10:33:05.301Z,7.4
2018-12-26T10:38:05.335Z,7.4
2018-12-26T10:43:05.309Z,7.5
2018-12-26T10:48:05.485Z,7.5
2018-12-26T10:53:05.384Z,7.6
2018-12-26T10:58:06.140Z,7.6
2018-12-26T11:03:06.008Z,7.6
2018-12-26T11:08:05.301Z,7.6
2018-12-26T11:13:05.282Z,7.6
2018-12-26T11:18:05.991Z,7.6
2018-12-26T11:23:05.515Z,7.7
2018-12-26T11:28:05.239Z,7.7
2018-12-26T11:33:06.329Z,7.7
2018-12-26T11:38:05.972Z,7.7
2018-12-26T11:43:05.389Z,7.8
2018-12-26T11:48:05.508Z,7.8
2018-12-26T11:53:06.075Z,7.8
2018-12-26T11:58:06.178Z,7.8
2018-12-26T12:03:05.876Z,7.8
2018-12-26T12:08:06.184Z,7.8
2018-12-26T12:13:06.288Z,7.8
2018-12-26T12:18:05.561Z,7.8
2018-12-26T12:23:05.699Z,7.8
2018-12-26T12:28:06.171Z,7.8
2018-12-26T12:33:05.465Z,7.9
2018-12-26T12:38:05.662Z,7.9
2018-12-26T12:43:06.203Z,8
2018-12-26T12:48:05.308Z,8
2018-12-26T12:53:05.435Z,8.1
2018-12-26T12:58:05.855Z,8.1
2018-12-26T13:03:06.225Z,8.1
2018-12-26T13:08:06.235Z,8.1
2018-12-26T13:13:05.574Z,8.2
2018-12-26T13:18:06.056Z,8.2
2018-12-26T13:23:05.332Z,8.2
2018-12-26T13:28:06.268Z,8.2
2018-12-26T13:33:05.678Z,8.3
2018-12-26T13:38:05.387Z,8.3
2018-12-26T13:43:05.749Z,8.3
2018-12-26T13:48:05.567Z,8.3
2018-12-26T13:53:05.599Z,8.4
2018-12-26T13:58:06.433Z,8.4
2018-12-26T14:03:05.814Z,8.4
2018-12-26T14:08:05.613Z,8.4
2018-12-26T14:13:06.043Z,8.4
2018-12-26T14:18:05.899Z,8.4
2018-12-26T14:23:05.547Z,8.4
2018-12-26T14:28:05.479Z,8.4
2018-12-26T14:33:06.321Z,8.4
2018-12-26T14:38:05.887Z,8.4
2018-12-26T14:43:05.430Z,8.4
2018-12-26T14:48:06.068Z,8.4
2018-12-26T14:53:05.573Z,8.4
2018-12-26T14:58:05.939Z,8.4
2018-12-26T15:03:05.949Z,8.4
2018-12-26T15:08:05.846Z,8.4
2018-12-26T15:13:06.354Z,8.4
2018-12-26T15:18:05.613Z,8.4
2018-12-26T15:23:06.220Z,8.4
2018-12-26T15:28:06.225Z,8.4
2018-12-26T15:33:05.872Z,8.4
2018-12-26T15:38:06.381Z,8.4
2018-12-26T15:43:06.119Z,8.5
2018-12-26T15:48:06.488Z,8.5
2018-12-26T15:53:06.135Z,8.5
2018-12-26T15:58:05.645Z,8.5
2018-12-26T16:03:06.299Z,8.5
2018-12-26T16:08:06.007Z,8.5
2018-12-26T16:13:05.848Z,8.5
2018-12-26T16:18:06.073Z,8.5
2018-12-26T16:23:06.244Z,8.5
2018-12-26T16:28:06.283Z,8.5
2018-12-26T16:33:06.126Z,8.6
2018-12-26T16:38:06.046Z,8.6
2018-12-26T16:43:05.632Z,8.6
2018-12-26T16:48:06.165Z,8.6
2018-12-26T16:53:06.206Z,8.6
2018-12-26T16:58:06.475Z,8.6
2018-12-26T17:03:05.788Z,8.7
2018-12-26T17:08:06.021Z,8.7
2018-12-26T17:13:05.831Z,8.7
2018-12-26T17:18:06.207Z,8.7
2018-12-26T17:23:06.228Z,8.7
2018-12-26T17:28:06.220Z,8.7
2018-12-26T17:33:05.691Z,8.7
2018-12-26T17:38:05.987Z,8.7
2018-12-26T17:43:06.334Z,8.7
2018-12-26T17:48:06.438Z,8.7
2018-12-26T17:53:05.673Z,8.7
2018-12-26T17:58:05.924Z,8.7
2018-12-26T18:03:06.242Z,8.7
2018-12-26T18:08:06.145Z,8.7
2018-12-26T18:13:06.207Z,8.7
2018-12-26T18:18:06.238Z,8.7
2018-12-26T18:23:06.107Z,8.7
2018-12-26T18:28:06.675Z,8.7
2018-12-26T18:33:06.541Z,8.7
2018-12-26T18:38:06.391Z,8.7
2018-12-26T18:43:06.682Z,8.7
2018-12-26T18:48:06.305Z,8.7
2018-12-26T18:53:06.288Z,8.7
2018-12-26T18:58:06.301Z,8.7
2018-12-26T19:03:06.528Z,8.6
2018-12-26T19:08:06.442Z,8.6
2018-12-26T19:13:06.341Z,8.6
2018-12-26T19:18:06.028Z,8.6
2018-12-26T19:23:05.797Z,8.5
2018-12-26T19:28:06.473Z,8.5
2018-12-26T19:33:06.325Z,8.4
2018-12-26T19:38:06.056Z,8.4
2018-12-26T19:43:06.648Z,8.3
2018-12-26T19:48:06.275Z,8.3
2018-12-26T19:53:06.322Z,8.2
2018-12-26T19:58:06.340Z,8.2
2018-12-26T20:03:06.350Z,8.2
2018-12-26T20:08:06.532Z,8.2
2018-12-26T20:13:06.788Z,8.1
2018-12-26T20:18:06.556Z,8.1
2018-12-26T20:23:06.326Z,8.1
2018-12-26T20:28:06.642Z,8.1
2018-12-26T20:33:06.796Z,8.1
2018-12-26T20:38:06.676Z,8.1
2018-12-26T20:43:06.233Z,8
2018-12-26T20:48:06.087Z,8
2018-12-26T20:53:06.648Z,7.9
2018-12-26T20:58:06.295Z,7.9
2018-12-26T21:03:06.212Z,7.9
2018-12-26T21:08:06.409Z,7.9
2018-12-26T21:13:06.363Z,7.8
2018-12-26T21:18:05.900Z,7.8
2018-12-26T21:23:06.764Z,7.8
2018-12-26T21:28:06.842Z,7.8
2018-12-26T21:33:06.789Z,7.7
2018-12-26T21:38:06.644Z,7.7
2018-12-26T21:43:06.999Z,7.6
2018-12-26T21:48:06.735Z,7.6
2018-12-26T21:53:06.378Z,7.6
2018-12-26T21:58:05.907Z,7.6
2018-12-26T22:03:07.052Z,7.6
2018-12-26T22:08:06.220Z,7.6
2018-12-26T22:13:06.649Z,7.5
2018-12-26T22:18:06.765Z,7.5
2018-12-26T22:23:06.552Z,7.5
2018-12-26T22:28:06.268Z,7.5
2018-12-26T22:33:06.908Z,7.4
2018-12-26T22:38:06.553Z,7.4
2018-12-26T22:43:06.247Z,7.4
2018-12-26T22:48:06.785Z,7.4
2018-12-26T22:53:06.412Z,7.4
2018-12-26T22:58:06.863Z,7.4
2018-12-26T23:03:06.332Z,7.3
2018-12-26T23:08:06.603Z,7.3
2018-12-26T23:13:06.110Z,7.3
2018-12-26T23:18:06.901Z,7.3
2018-12-26T23:23:06.533Z,7.3
2018-12-26T23:28:06.083Z,7.3
2018-12-26T23:33:06.766Z,7.3
2018-12-26T23:38:06.399Z,7.3
2018-12-26T23:43:06.466Z,7.3
2018-12-26T23:48:06.107Z,7.3
2018-12-26T23:53:06.562Z,7.2
2018-12-26T23:58:06.797Z,7.2
